sensor_id;sensor_type;location;lat;lon;timestamp;P1;durP1;ratioP1;P2;durP2;ratioP2
1751;SDS011;873;47.696;8.068;2023-05-19T00:01:56;1.27;;;0.50;;
1751;SDS011;873;47.696;8.068;2023-05-19T00:04:24;0.70;;;0.33;;
1751;SDS011;873;47.696;8.068;2023-05-19T00:06:51;0.60;;;0.50;;
1751;SDS011;873;47.696;8.068;2023-05-19T00:09:18;0.50;;;0.40;;
1751;SDS011;873;47.696;8.068;2023-05-19T00:11:44;0.50;;;0.50;;
1751;SDS011;873;47.696;8.068;2023-05-19T00:14:10;2.93;;;0.60;;
1751;SDS011;873;47.696;8.068;2023-05-19T00:16:36;0.23;;;0.23;;
1751;SDS011;873;47.696;8.068;2023-05-19T00:21:50;0.30;;;0.30;;
1751;SDS011;873;47.696;8.068;2023-05-19T00:24:16;0.93;;;0.40;;
1751;SDS011;873;47.696;8.068;2023-05-19T00:26:41;1.20;;;0.63;;
1751;SDS011;873;47.696;8.068;2023-05-19T00:29:07;0.40;;;0.37;;
1751;SDS011;873;47.696;8.068;2023-05-19T00:31:32;0.73;;;0.33;;
1751;SDS011;873;47.696;8.068;2023-05-19T00:33:58;0.17;;;0.17;;
1751;SDS011;873;47.696;8.068;2023-05-19T00:36:24;1.93;;;0.50;;
1751;SDS011;873;47.696;8.068;2023-05-19T00:38:50;5.07;;;0.57;;
1751;SDS011;873;47.696;8.068;2023-05-19T00:41:15;0.73;;;0.57;;
1751;SDS011;873;47.696;8.068;2023-05-19T00:43:41;0.77;;;0.60;;
1751;SDS011;873;47.696;8.068;2023-05-19T00:46:07;1.23;;;0.67;;
1751;SDS011;873;47.696;8.068;2023-05-19T00:48:32;0.63;;;0.57;;
1751;SDS011;873;47.696;8.068;2023-05-19T00:50:58;0.40;;;0.33;;
1751;SDS011;873;47.696;8.068;2023-05-19T00:53:29;0.60;;;0.57;;
1751;SDS011;873;47.696;8.068;2023-05-19T00:55:56;0.43;;;0.43;;
1751;SDS011;873;47.696;8.068;2023-05-19T00:58:22;0.50;;;0.50;;
1751;SDS011;873;47.696;8.068;2023-05-19T01:00:53;2.40;;;0.70;;
1751;SDS011;873;47.696;8.068;2023-05-19T01:03:20;0.70;;;0.60;;
1751;SDS011;873;47.696;8.068;2023-05-19T01:05:47;0.73;;;0.60;;
1751;SDS011;873;47.696;8.068;2023-05-19T01:08:13;1.53;;;0.67;;
1751;SDS011;873;47.696;8.068;2023-05-19T01:10:40;2.63;;;0.70;;
1751;SDS011;873;47.696;8.068;2023-05-19T01:13:05;0.43;;;0.43;;
1751;SDS011;873;47.696;8.068;2023-05-19T01:15:33;1.90;;;0.43;;
1751;SDS011;873;47.696;8.068;2023-05-19T01:18:04;1.97;;;0.63;;
1751;SDS011;873;47.696;8.068;2023-05-19T01:20:37;1.10;;;0.70;;
1751;SDS011;873;47.696;8.068;2023-05-19T01:26:07;5.77;;;0.70;;
1751;SDS011;873;47.696;8.068;2023-05-19T01:28:52;0.17;;;0.17;;
1751;SDS011;873;47.696;8.068;2023-05-19T01:31:34;1.30;;;0.70;;
1751;SDS011;873;47.696;8.068;2023-05-19T01:34:01;0.70;;;0.60;;
1751;SDS011;873;47.696;8.068;2023-05-19T01:36:28;0.63;;;0.53;;
1751;SDS011;873;47.696;8.068;2023-05-19T01:38:57;1.57;;;0.80;;
1751;SDS011;873;47.696;8.068;2023-05-19T01:41:23;0.60;;;0.60;;
1751;SDS011;873;47.696;8.068;2023-05-19T01:43:49;1.20;;;0.73;;
1751;SDS011;873;47.696;8.068;2023-05-19T01:46:15;4.00;;;0.70;;
1751;SDS011;873;47.696;8.068;2023-05-19T01:48:42;3.13;;;0.83;;
1751;SDS011;873;47.696;8.068;2023-05-19T01:51:07;1.47;;;0.70;;
1751;SDS011;873;47.696;8.068;2023-05-19T01:53:33;1.60;;;0.47;;
1751;SDS011;873;47.696;8.068;2023-05-19T01:55:58;1.30;;;0.90;;
1751;SDS011;873;47.696;8.068;2023-05-19T02:01:15;1.10;;;0.70;;
1751;SDS011;873;47.696;8.068;2023-05-19T02:12:24;1.93;;;0.70;;
1751;SDS011;873;47.696;8.068;2023-05-19T02:14:59;1.27;;;0.63;;
1751;SDS011;873;47.696;8.068;2023-05-19T02:17:42;0.73;;;0.68;;
1751;SDS011;873;47.696;8.068;2023-05-19T02:20:12;2.50;;;1.30;;
1751;SDS011;873;47.696;8.068;2023-05-19T02:22:38;2.07;;;0.80;;
1751;SDS011;873;47.696;8.068;2023-05-19T02:25:03;0.77;;;0.50;;
1751;SDS011;873;47.696;8.068;2023-05-19T02:27:29;1.27;;;0.70;;
1751;SDS011;873;47.696;8.068;2023-05-19T02:29:55;0.77;;;0.60;;
1751;SDS011;873;47.696;8.068;2023-05-19T02:32:20;0.60;;;0.60;;
1751;SDS011;873;47.696;8.068;2023-05-19T02:34:46;1.13;;;0.90;;
1751;SDS011;873;47.696;8.068;2023-05-19T02:37:12;0.70;;;0.70;;
1751;SDS011;873;47.696;8.068;2023-05-19T02:39:39;2.23;;;0.77;;
1751;SDS011;873;47.696;8.068;2023-05-19T02:42:06;1.13;;;0.93;;
1751;SDS011;873;47.696;8.068;2023-05-19T02:44:31;1.03;;;0.57;;
1751;SDS011;873;47.696;8.068;2023-05-19T02:46:57;0.97;;;0.80;;
1751;SDS011;873;47.696;8.068;2023-05-19T02:49:22;0.70;;;0.70;;
1751;SDS011;873;47.696;8.068;2023-05-19T02:51:48;1.83;;;0.83;;
1751;SDS011;873;47.696;8.068;2023-05-19T02:54:13;1.23;;;0.57;;
1751;SDS011;873;47.696;8.068;2023-05-19T02:56:39;0.80;;;0.70;;
1751;SDS011;873;47.696;8.068;2023-05-19T02:59:04;1.50;;;0.80;;
1751;SDS011;873;47.696;8.068;2023-05-19T03:01:30;1.30;;;0.80;;
1751;SDS011;873;47.696;8.068;2023-05-19T03:03:56;1.23;;;0.70;;
1751;SDS011;873;47.696;8.068;2023-05-19T03:06:22;1.60;;;0.70;;
1751;SDS011;873;47.696;8.068;2023-05-19T03:08:48;4.27;;;1.77;;
1751;SDS011;873;47.696;8.068;2023-05-19T03:11:14;1.23;;;0.80;;
1751;SDS011;873;47.696;8.068;2023-05-19T03:13:40;3.03;;;0.50;;
1751;SDS011;873;47.696;8.068;2023-05-19T03:16:05;1.27;;;0.50;;
1751;SDS011;873;47.696;8.068;2023-05-19T03:18:32;0.47;;;0.47;;
1751;SDS011;873;47.696;8.068;2023-05-19T03:20:58;1.70;;;0.93;;
1751;SDS011;873;47.696;8.068;2023-05-19T03:23:23;1.33;;;0.90;;
1751;SDS011;873;47.696;8.068;2023-05-19T03:25:50;2.43;;;0.93;;
1751;SDS011;873;47.696;8.068;2023-05-19T03:28:18;2.03;;;0.70;;
1751;SDS011;873;47.696;8.068;2023-05-19T03:30:44;0.97;;;0.70;;
1751;SDS011;873;47.696;8.068;2023-05-19T03:33:10;0.77;;;0.60;;
1751;SDS011;873;47.696;8.068;2023-05-19T03:35:35;1.03;;;0.67;;
1751;SDS011;873;47.696;8.068;2023-05-19T03:38:01;1.50;;;0.93;;
1751;SDS011;873;47.696;8.068;2023-05-19T03:40:26;1.13;;;0.60;;
1751;SDS011;873;47.696;8.068;2023-05-19T03:42:52;1.07;;;0.97;;
1751;SDS011;873;47.696;8.068;2023-05-19T03:45:18;2.90;;;0.70;;
1751;SDS011;873;47.696;8.068;2023-05-19T03:47:44;1.77;;;0.60;;
1751;SDS011;873;47.696;8.068;2023-05-19T03:50:11;0.87;;;0.60;;
1751;SDS011;873;47.696;8.068;2023-05-19T03:52:37;1.07;;;0.60;;
1751;SDS011;873;47.696;8.068;2023-05-19T03:55:04;2.10;;;0.70;;
1751;SDS011;873;47.696;8.068;2023-05-19T03:57:30;0.80;;;0.70;;
1751;SDS011;873;47.696;8.068;2023-05-19T03:59:55;0.50;;;0.50;;
1751;SDS011;873;47.696;8.068;2023-05-19T04:02:21;0.70;;;0.60;;
1751;SDS011;873;47.696;8.068;2023-05-19T04:04:46;2.20;;;0.90;;
1751;SDS011;873;47.696;8.068;2023-05-19T04:07:11;0.93;;;0.67;;
1751;SDS011;873;47.696;8.068;2023-05-19T04:09:37;1.03;;;0.93;;
1751;SDS011;873;47.696;8.068;2023-05-19T04:12:03;1.63;;;0.77;;
1751;SDS011;873;47.696;8.068;2023-05-19T04:14:28;1.50;;;0.60;;
1751;SDS011;873;47.696;8.068;2023-05-19T04:16:54;0.53;;;0.53;;
1751;SDS011;873;47.696;8.068;2023-05-19T04:19:19;1.73;;;0.83;;
1751;SDS011;873;47.696;8.068;2023-05-19T04:21:45;0.57;;;0.57;;
1751;SDS011;873;47.696;8.068;2023-05-19T04:24:11;1.23;;;0.90;;
1751;SDS011;873;47.696;8.068;2023-05-19T04:26:36;0.67;;;0.50;;
1751;SDS011;873;47.696;8.068;2023-05-19T04:29:02;2.20;;;1.07;;
1751;SDS011;873;47.696;8.068;2023-05-19T04:31:28;1.10;;;0.80;;
1751;SDS011;873;47.696;8.068;2023-05-19T04:33:54;1.40;;;1.00;;
1751;SDS011;873;47.696;8.068;2023-05-19T04:36:20;0.77;;;0.77;;
1751;SDS011;873;47.696;8.068;2023-05-19T04:38:46;0.60;;;0.60;;
1751;SDS011;873;47.696;8.068;2023-05-19T04:41:11;0.40;;;0.40;;
1751;SDS011;873;47.696;8.068;2023-05-19T04:43:37;0.80;;;0.80;;
1751;SDS011;873;47.696;8.068;2023-05-19T04:46:06;0.50;;;0.50;;
1751;SDS011;873;47.696;8.068;2023-05-19T04:48:34;1.33;;;0.70;;
1751;SDS011;873;47.696;8.068;2023-05-19T04:50:59;0.83;;;0.60;;
1751;SDS011;873;47.696;8.068;2023-05-19T04:53:26;0.30;;;0.30;;
1751;SDS011;873;47.696;8.068;2023-05-19T04:55:53;0.70;;;0.60;;
1751;SDS011;873;47.696;8.068;2023-05-19T04:58:19;1.83;;;0.63;;
1751;SDS011;873;47.696;8.068;2023-05-19T05:00:44;1.70;;;0.70;;
1751;SDS011;873;47.696;8.068;2023-05-19T05:03:10;1.27;;;0.77;;
1751;SDS011;873;47.696;8.068;2023-05-19T05:05:36;0.73;;;0.53;;
1751;SDS011;873;47.696;8.068;2023-05-19T05:08:01;1.30;;;0.83;;
1751;SDS011;873;47.696;8.068;2023-05-19T05:10:27;0.83;;;0.73;;
1751;SDS011;873;47.696;8.068;2023-05-19T05:12:53;1.13;;;0.83;;
1751;SDS011;873;47.696;8.068;2023-05-19T05:15:19;1.77;;;0.83;;
1751;SDS011;873;47.696;8.068;2023-05-19T05:17:45;0.90;;;0.50;;
1751;SDS011;873;47.696;8.068;2023-05-19T05:20:11;0.50;;;0.50;;
1751;SDS011;873;47.696;8.068;2023-05-19T05:22:37;0.70;;;0.50;;
1751;SDS011;873;47.696;8.068;2023-05-19T05:25:03;8.10;;;0.77;;
1751;SDS011;873;47.696;8.068;2023-05-19T05:27:29;0.50;;;0.50;;
1751;SDS011;873;47.696;8.068;2023-05-19T05:29:55;0.60;;;0.50;;
1751;SDS011;873;47.696;8.068;2023-05-19T05:32:20;0.37;;;0.30;;
1751;SDS011;873;47.696;8.068;2023-05-19T05:34:46;0.57;;;0.47;;
1751;SDS011;873;47.696;8.068;2023-05-19T05:37:12;0.40;;;0.30;;
1751;SDS011;873;47.696;8.068;2023-05-19T05:39:37;0.57;;;0.50;;
1751;SDS011;873;47.696;8.068;2023-05-19T05:42:03;0.47;;;0.47;;
1751;SDS011;873;47.696;8.068;2023-05-19T05:44:28;0.60;;;0.50;;
1751;SDS011;873;47.696;8.068;2023-05-19T05:46:54;0.50;;;0.50;;
1751;SDS011;873;47.696;8.068;2023-05-19T05:49:20;0.40;;;0.30;;
1751;SDS011;873;47.696;8.068;2023-05-19T05:51:46;0.50;;;0.50;;
1751;SDS011;873;47.696;8.068;2023-05-19T05:54:11;0.60;;;0.60;;
1751;SDS011;873;47.696;8.068;2023-05-19T05:56:37;1.17;;;0.53;;
1751;SDS011;873;47.696;8.068;2023-05-19T05:59:03;1.60;;;0.50;;
1751;SDS011;873;47.696;8.068;2023-05-19T06:01:29;1.30;;;0.43;;
1751;SDS011;873;47.696;8.068;2023-05-19T06:03:55;0.77;;;0.50;;
1751;SDS011;873;47.696;8.068;2023-05-19T06:06:21;0.40;;;0.33;;
1751;SDS011;873;47.696;8.068;2023-05-19T06:08:46;0.50;;;0.40;;
1751;SDS011;873;47.696;8.068;2023-05-19T06:11:13;1.00;;;0.50;;
1751;SDS011;873;47.696;8.068;2023-05-19T06:13:38;1.90;;;0.70;;
1751;SDS011;873;47.696;8.068;2023-05-19T06:16:05;1.13;;;0.50;;
1751;SDS011;873;47.696;8.068;2023-05-19T06:18:31;0.60;;;0.50;;
1751;SDS011;873;47.696;8.068;2023-05-19T06:20:56;0.80;;;0.60;;
1751;SDS011;873;47.696;8.068;2023-05-19T06:23:22;0.70;;;0.40;;
1751;SDS011;873;47.696;8.068;2023-05-19T06:25:49;0.40;;;0.40;;
1751;SDS011;873;47.696;8.068;2023-05-19T06:28:15;0.83;;;0.67;;
1751;SDS011;873;47.696;8.068;2023-05-19T06:30:40;0.30;;;0.30;;
1751;SDS011;873;47.696;8.068;2023-05-19T06:33:06;0.87;;;0.40;;
1751;SDS011;873;47.696;8.068;2023-05-19T06:35:31;0.67;;;0.40;;
1751;SDS011;873;47.696;8.068;2023-05-19T06:37:57;0.57;;;0.50;;
1751;SDS011;873;47.696;8.068;2023-05-19T06:40:22;0.23;;;0.20;;
1751;SDS011;873;47.696;8.068;2023-05-19T06:42:48;0.13;;;0.13;;
1751;SDS011;873;47.696;8.068;2023-05-19T06:45:13;0.40;;;0.40;;
1751;SDS011;873;47.696;8.068;2023-05-19T06:47:39;0.50;;;0.40;;
1751;SDS011;873;47.696;8.068;2023-05-19T06:50:06;1.40;;;0.67;;
1751;SDS011;873;47.696;8.068;2023-05-19T06:52:33;0.37;;;0.30;;
1751;SDS011;873;47.696;8.068;2023-05-19T06:54:59;1.10;;;0.80;;
1751;SDS011;873;47.696;8.068;2023-05-19T06:57:24;0.73;;;0.63;;
1751;SDS011;873;47.696;8.068;2023-05-19T06:59:50;1.80;;;0.70;;
1751;SDS011;873;47.696;8.068;2023-05-19T07:02:15;0.40;;;0.40;;
1751;SDS011;873;47.696;8.068;2023-05-19T07:04:41;0.33;;;0.33;;
1751;SDS011;873;47.696;8.068;2023-05-19T07:07:07;0.57;;;0.33;;
1751;SDS011;873;47.696;8.068;2023-05-19T07:09:32;0.33;;;0.33;;
1751;SDS011;873;47.696;8.068;2023-05-19T07:11:58;0.50;;;0.50;;
1751;SDS011;873;47.696;8.068;2023-05-19T07:14:24;0.60;;;0.30;;
1751;SDS011;873;47.696;8.068;2023-05-19T07:16:49;0.40;;;0.30;;
1751;SDS011;873;47.696;8.068;2023-05-19T07:19:15;0.53;;;0.50;;
1751;SDS011;873;47.696;8.068;2023-05-19T07:21:40;0.50;;;0.50;;
1751;SDS011;873;47.696;8.068;2023-05-19T07:24:06;0.87;;;0.50;;
1751;SDS011;873;47.696;8.068;2023-05-19T07:26:32;0.40;;;0.40;;
1751;SDS011;873;47.696;8.068;2023-05-19T07:28:57;0.93;;;0.70;;
1751;SDS011;873;47.696;8.068;2023-05-19T07:31:23;0.40;;;0.30;;
1751;SDS011;873;47.696;8.068;2023-05-19T07:33:48;0.97;;;0.63;;
1751;SDS011;873;47.696;8.068;2023-05-19T07:36:14;0.40;;;0.40;;
1751;SDS011;873;47.696;8.068;2023-05-19T07:38:40;2.10;;;0.60;;
1751;SDS011;873;47.696;8.068;2023-05-19T07:41:06;0.87;;;0.70;;
1751;SDS011;873;47.696;8.068;2023-05-19T07:43:31;1.27;;;0.67;;
1751;SDS011;873;47.696;8.068;2023-05-19T07:45:57;0.50;;;0.43;;
1751;SDS011;873;47.696;8.068;2023-05-19T07:48:23;0.50;;;0.40;;
1751;SDS011;873;47.696;8.068;2023-05-19T07:50:49;0.47;;;0.40;;
1751;SDS011;873;47.696;8.068;2023-05-19T07:53:16;0.50;;;0.50;;
1751;SDS011;873;47.696;8.068;2023-05-19T07:55:41;0.73;;;0.40;;
1751;SDS011;873;47.696;8.068;2023-05-19T07:58:07;1.33;;;0.70;;
1751;SDS011;873;47.696;8.068;2023-05-19T08:00:32;0.70;;;0.60;;
1751;SDS011;873;47.696;8.068;2023-05-19T08:02:58;0.53;;;0.43;;
1751;SDS011;873;47.696;8.068;2023-05-19T08:05:24;0.50;;;0.43;;
1751;SDS011;873;47.696;8.068;2023-05-19T08:07:50;0.50;;;0.50;;
1751;SDS011;873;47.696;8.068;2023-05-19T08:10:16;0.90;;;0.50;;
1751;SDS011;873;47.696;8.068;2023-05-19T08:12:42;0.60;;;0.50;;
1751;SDS011;873;47.696;8.068;2023-05-19T08:15:08;0.90;;;0.60;;
1751;SDS011;873;47.696;8.068;2023-05-19T08:17:36;0.80;;;0.60;;
1751;SDS011;873;47.696;8.068;2023-05-19T08:20:02;1.00;;;0.63;;
1751;SDS011;873;47.696;8.068;2023-05-19T08:22:30;0.73;;;0.73;;
1751;SDS011;873;47.696;8.068;2023-05-19T08:24:55;0.40;;;0.40;;
1751;SDS011;873;47.696;8.068;2023-05-19T08:27:22;0.50;;;0.50;;
1751;SDS011;873;47.696;8.068;2023-05-19T08:29:47;0.70;;;0.50;;
1751;SDS011;873;47.696;8.068;2023-05-19T08:32:13;0.37;;;0.37;;
1751;SDS011;873;47.696;8.068;2023-05-19T08:34:38;0.50;;;0.50;;
1751;SDS011;873;47.696;8.068;2023-05-19T08:37:05;0.30;;;0.30;;
1751;SDS011;873;47.696;8.068;2023-05-19T08:39:31;0.40;;;0.40;;
1751;SDS011;873;47.696;8.068;2023-05-19T08:41:58;0.50;;;0.40;;
1751;SDS011;873;47.696;8.068;2023-05-19T08:44:23;0.73;;;0.60;;
1751;SDS011;873;47.696;8.068;2023-05-19T08:46:49;0.73;;;0.70;;
1751;SDS011;873;47.696;8.068;2023-05-19T08:49:17;0.53;;;0.50;;
1751;SDS011;873;47.696;8.068;2023-05-19T08:54:52;0.73;;;0.40;;
1751;SDS011;873;47.696;8.068;2023-05-19T08:57:25;0.50;;;0.40;;
1751;SDS011;873;47.696;8.068;2023-05-19T08:59:51;0.67;;;0.47;;
1751;SDS011;873;47.696;8.068;2023-05-19T09:02:19;0.73;;;0.63;;
1751;SDS011;873;47.696;8.068;2023-05-19T09:04:46;1.00;;;0.50;;
1751;SDS011;873;47.696;8.068;2023-05-19T09:07:13;1.07;;;0.80;;
1751;SDS011;873;47.696;8.068;2023-05-19T09:09:39;0.60;;;0.60;;
1751;SDS011;873;47.696;8.068;2023-05-19T09:12:07;1.63;;;0.63;;
1751;SDS011;873;47.696;8.068;2023-05-19T09:14:36;1.33;;;0.80;;
1751;SDS011;873;47.696;8.068;2023-05-19T09:17:02;0.57;;;0.57;;
1751;SDS011;873;47.696;8.068;2023-05-19T09:19:28;0.97;;;0.60;;
1751;SDS011;873;47.696;8.068;2023-05-19T09:22:01;0.87;;;0.70;;
1751;SDS011;873;47.696;8.068;2023-05-19T09:24:27;0.53;;;0.53;;
1751;SDS011;873;47.696;8.068;2023-05-19T09:26:53;0.53;;;0.53;;
1751;SDS011;873;47.696;8.068;2023-05-19T09:29:21;0.70;;;0.60;;
1751;SDS011;873;47.696;8.068;2023-05-19T09:31:47;0.60;;;0.60;;
1751;SDS011;873;47.696;8.068;2023-05-19T09:34:18;0.40;;;0.40;;
1751;SDS011;873;47.696;8.068;2023-05-19T09:36:46;0.50;;;0.50;;
1751;SDS011;873;47.696;8.068;2023-05-19T09:39:14;0.80;;;0.53;;
1751;SDS011;873;47.696;8.068;2023-05-19T09:41:41;0.37;;;0.37;;
1751;SDS011;873;47.696;8.068;2023-05-19T09:44:08;1.03;;;0.43;;
1751;SDS011;873;47.696;8.068;2023-05-19T09:46:37;0.50;;;0.50;;
1751;SDS011;873;47.696;8.068;2023-05-19T09:49:07;0.60;;;0.60;;
1751;SDS011;873;47.696;8.068;2023-05-19T09:51:35;0.90;;;0.60;;
1751;SDS011;873;47.696;8.068;2023-05-19T09:54:02;0.63;;;0.50;;
1751;SDS011;873;47.696;8.068;2023-05-19T09:56:36;0.57;;;0.50;;
1751;SDS011;873;47.696;8.068;2023-05-19T09:59:03;0.90;;;0.70;;
1751;SDS011;873;47.696;8.068;2023-05-19T10:01:29;0.80;;;0.50;;
1751;SDS011;873;47.696;8.068;2023-05-19T10:03:55;1.60;;;0.40;;
1751;SDS011;873;47.696;8.068;2023-05-19T10:06:22;0.53;;;0.53;;
1751;SDS011;873;47.696;8.068;2023-05-19T10:08:48;0.63;;;0.40;;
1751;SDS011;873;47.696;8.068;2023-05-19T10:11:14;0.70;;;0.60;;
1751;SDS011;873;47.696;8.068;2023-05-19T10:13:41;0.70;;;0.50;;
1751;SDS011;873;47.696;8.068;2023-05-19T10:16:07;0.30;;;0.20;;
1751;SDS011;873;47.696;8.068;2023-05-19T10:18:33;0.60;;;0.40;;
1751;SDS011;873;47.696;8.068;2023-05-19T10:20:59;0.93;;;0.50;;
1751;SDS011;873;47.696;8.068;2023-05-19T10:23:26;0.50;;;0.50;;
1751;SDS011;873;47.696;8.068;2023-05-19T10:25:54;0.73;;;0.73;;
1751;SDS011;873;47.696;8.068;2023-05-19T10:28:20;0.70;;;0.70;;
1751;SDS011;873;47.696;8.068;2023-05-19T10:30:49;0.57;;;0.53;;
1751;SDS011;873;47.696;8.068;2023-05-19T10:33:18;0.50;;;0.50;;
1751;SDS011;873;47.696;8.068;2023-05-19T10:41:05;0.70;;;0.43;;
1751;SDS011;873;47.696;8.068;2023-05-19T10:46:39;0.50;;;0.50;;
1751;SDS011;873;47.696;8.068;2023-05-19T10:49:07;0.40;;;0.40;;
1751;SDS011;873;47.696;8.068;2023-05-19T10:51:32;0.70;;;0.67;;
1751;SDS011;873;47.696;8.068;2023-05-19T10:54:01;0.90;;;0.67;;
1751;SDS011;873;47.696;8.068;2023-05-19T10:56:28;0.67;;;0.57;;
1751;SDS011;873;47.696;8.068;2023-05-19T10:58:56;0.50;;;0.50;;
1751;SDS011;873;47.696;8.068;2023-05-19T11:01:22;0.90;;;0.50;;
1751;SDS011;873;47.696;8.068;2023-05-19T11:03:54;1.40;;;0.60;;
1751;SDS011;873;47.696;8.068;2023-05-19T11:11:43;0.73;;;0.70;;
1751;SDS011;873;47.696;8.068;2023-05-19T11:14:19;0.35;;;0.35;;
1751;SDS011;873;47.696;8.068;2023-05-19T11:16:47;0.53;;;0.50;;
1751;SDS011;873;47.696;8.068;2023-05-19T11:19:30;0.53;;;0.40;;
1751;SDS011;873;47.696;8.068;2023-05-19T11:22:12;0.97;;;0.53;;
1751;SDS011;873;47.696;8.068;2023-05-19T11:24:42;1.70;;;0.60;;
1751;SDS011;873;47.696;8.068;2023-05-19T11:29:58;0.70;;;0.70;;
1751;SDS011;873;47.696;8.068;2023-05-19T11:32:27;1.33;;;0.80;;
1751;SDS011;873;47.696;8.068;2023-05-19T11:34:54;0.77;;;0.67;;
1751;SDS011;873;47.696;8.068;2023-05-19T11:37:20;0.87;;;0.60;;
1751;SDS011;873;47.696;8.068;2023-05-19T11:39:45;0.73;;;0.70;;
1751;SDS011;873;47.696;8.068;2023-05-19T11:42:11;0.60;;;0.60;;
1751;SDS011;873;47.696;8.068;2023-05-19T11:44:37;0.73;;;0.70;;
1751;SDS011;873;47.696;8.068;2023-05-19T11:47:05;0.67;;;0.60;;
1751;SDS011;873;47.696;8.068;2023-05-19T11:49:30;0.63;;;0.47;;
1751;SDS011;873;47.696;8.068;2023-05-19T11:51:56;0.80;;;0.70;;
1751;SDS011;873;47.696;8.068;2023-05-19T11:54:27;1.00;;;0.67;;
1751;SDS011;873;47.696;8.068;2023-05-19T11:56:55;0.80;;;0.63;;
1751;SDS011;873;47.696;8.068;2023-05-19T11:59:28;0.73;;;0.63;;
1751;SDS011;873;47.696;8.068;2023-05-19T12:01:56;0.67;;;0.67;;
1751;SDS011;873;47.696;8.068;2023-05-19T12:04:21;1.73;;;0.80;;
1751;SDS011;873;47.696;8.068;2023-05-19T12:06:47;0.60;;;0.60;;
1751;SDS011;873;47.696;8.068;2023-05-19T12:09:13;0.63;;;0.60;;
1751;SDS011;873;47.696;8.068;2023-05-19T12:11:39;0.77;;;0.57;;
1751;SDS011;873;47.696;8.068;2023-05-19T12:14:04;1.87;;;0.60;;
1751;SDS011;873;47.696;8.068;2023-05-19T12:16:31;0.70;;;0.70;;
1751;SDS011;873;47.696;8.068;2023-05-19T12:18:59;1.33;;;1.00;;
1751;SDS011;873;47.696;8.068;2023-05-19T12:21:25;0.60;;;0.60;;
1751;SDS011;873;47.696;8.068;2023-05-19T12:23:50;0.67;;;0.50;;
1751;SDS011;873;47.696;8.068;2023-05-19T12:26:16;0.60;;;0.60;;
1751;SDS011;873;47.696;8.068;2023-05-19T12:28:44;1.13;;;0.93;;
1751;SDS011;873;47.696;8.068;2023-05-19T12:31:10;1.33;;;0.90;;
1751;SDS011;873;47.696;8.068;2023-05-19T12:33:35;0.80;;;0.80;;
1751;SDS011;873;47.696;8.068;2023-05-19T12:36:01;2.50;;;0.60;;
1751;SDS011;873;47.696;8.068;2023-05-19T12:38:27;0.60;;;0.60;;
1751;SDS011;873;47.696;8.068;2023-05-19T12:40:52;0.80;;;0.80;;
1751;SDS011;873;47.696;8.068;2023-05-19T12:43:21;1.00;;;0.90;;
1751;SDS011;873;47.696;8.068;2023-05-19T12:45:47;0.67;;;0.63;;
1751;SDS011;873;47.696;8.068;2023-05-19T12:48:13;0.87;;;0.70;;
1751;SDS011;873;47.696;8.068;2023-05-19T12:50:40;0.73;;;0.70;;
1751;SDS011;873;47.696;8.068;2023-05-19T12:53:08;0.60;;;0.60;;
1751;SDS011;873;47.696;8.068;2023-05-19T12:55:37;0.80;;;0.70;;
1751;SDS011;873;47.696;8.068;2023-05-19T12:58:05;0.97;;;0.70;;
1751;SDS011;873;47.696;8.068;2023-05-19T13:00:31;1.10;;;1.00;;
1751;SDS011;873;47.696;8.068;2023-05-19T13:05:39;1.30;;;0.80;;
1751;SDS011;873;47.696;8.068;2023-05-19T13:08:11;0.80;;;0.50;;
1751;SDS011;873;47.696;8.068;2023-05-19T13:10:38;1.03;;;0.70;;
1751;SDS011;873;47.696;8.068;2023-05-19T13:13:06;2.10;;;1.07;;
1751;SDS011;873;47.696;8.068;2023-05-19T13:15:32;2.23;;;1.20;;
1751;SDS011;873;47.696;8.068;2023-05-19T13:18:00;1.00;;;0.90;;
1751;SDS011;873;47.696;8.068;2023-05-19T13:20:27;1.60;;;0.97;;
1751;SDS011;873;47.696;8.068;2023-05-19T13:22:53;0.83;;;0.80;;
1751;SDS011;873;47.696;8.068;2023-05-19T13:25:18;1.13;;;0.93;;
1751;SDS011;873;47.696;8.068;2023-05-19T13:27:45;1.07;;;0.90;;
1751;SDS011;873;47.696;8.068;2023-05-19T13:30:11;0.90;;;0.90;;
1751;SDS011;873;47.696;8.068;2023-05-19T13:32:37;0.80;;;0.80;;
1751;SDS011;873;47.696;8.068;2023-05-19T13:35:03;0.90;;;0.90;;
1751;SDS011;873;47.696;8.068;2023-05-19T13:37:29;2.53;;;1.07;;
1751;SDS011;873;47.696;8.068;2023-05-19T13:39:54;1.67;;;1.00;;
1751;SDS011;873;47.696;8.068;2023-05-19T13:42:21;2.33;;;1.00;;
1751;SDS011;873;47.696;8.068;2023-05-19T13:44:47;1.67;;;0.97;;
1751;SDS011;873;47.696;8.068;2023-05-19T13:47:13;0.80;;;0.80;;
1751;SDS011;873;47.696;8.068;2023-05-19T13:49:38;1.00;;;0.87;;
1751;SDS011;873;47.696;8.068;2023-05-19T13:52:05;1.57;;;0.83;;
1751;SDS011;873;47.696;8.068;2023-05-19T13:54:31;0.87;;;0.87;;
1751;SDS011;873;47.696;8.068;2023-05-19T13:56:57;1.10;;;1.00;;
1751;SDS011;873;47.696;8.068;2023-05-19T14:34:25;1.10;;;1.00;;
1751;SDS011;873;47.696;8.068;2023-05-19T14:36:51;1.07;;;0.97;;
1751;SDS011;873;47.696;8.068;2023-05-19T14:39:17;1.60;;;1.00;;
1751;SDS011;873;47.696;8.068;2023-05-19T14:41:42;1.00;;;0.90;;
1751;SDS011;873;47.696;8.068;2023-05-19T14:44:08;1.73;;;1.30;;
1751;SDS011;873;47.696;8.068;2023-05-19T14:46:33;1.20;;;0.93;;
1751;SDS011;873;47.696;8.068;2023-05-19T14:48:59;1.17;;;1.07;;
1751;SDS011;873;47.696;8.068;2023-05-19T14:51:25;1.67;;;1.20;;
1751;SDS011;873;47.696;8.068;2023-05-19T14:53:50;1.30;;;1.07;;
1751;SDS011;873;47.696;8.068;2023-05-19T14:56:15;0.90;;;0.90;;
1751;SDS011;873;47.696;8.068;2023-05-19T14:58:41;1.03;;;0.93;;
1751;SDS011;873;47.696;8.068;2023-05-19T15:01:07;1.87;;;1.30;;
1751;SDS011;873;47.696;8.068;2023-05-19T15:03:32;2.20;;;1.40;;
1751;SDS011;873;47.696;8.068;2023-05-19T15:05:59;1.60;;;1.27;;
1751;SDS011;873;47.696;8.068;2023-05-19T15:08:25;2.20;;;1.23;;
1751;SDS011;873;47.696;8.068;2023-05-19T15:10:50;1.30;;;1.00;;
1751;SDS011;873;47.696;8.068;2023-05-19T15:13:16;1.10;;;1.00;;
1751;SDS011;873;47.696;8.068;2023-05-19T15:15:43;1.53;;;1.20;;
1751;SDS011;873;47.696;8.068;2023-05-19T15:18:09;1.27;;;1.17;;
1751;SDS011;873;47.696;8.068;2023-05-19T15:20:35;1.33;;;1.23;;
1751;SDS011;873;47.696;8.068;2023-05-19T15:23:01;2.17;;;1.13;;
1751;SDS011;873;47.696;8.068;2023-05-19T15:25:27;1.43;;;1.13;;
1751;SDS011;873;47.696;8.068;2023-05-19T15:27:52;1.37;;;1.07;;
1751;SDS011;873;47.696;8.068;2023-05-19T15:30:18;1.40;;;1.27;;
1751;SDS011;873;47.696;8.068;2023-05-19T15:32:43;2.37;;;1.27;;
1751;SDS011;873;47.696;8.068;2023-05-19T15:35:09;2.20;;;1.03;;
1751;SDS011;873;47.696;8.068;2023-05-19T15:37:34;1.53;;;1.37;;
1751;SDS011;873;47.696;8.068;2023-05-19T15:40:00;2.00;;;1.20;;
1751;SDS011;873;47.696;8.068;2023-05-19T15:42:25;2.50;;;1.40;;
1751;SDS011;873;47.696;8.068;2023-05-19T15:44:51;1.53;;;1.43;;
1751;SDS011;873;47.696;8.068;2023-05-19T15:47:16;1.13;;;1.00;;
1751;SDS011;873;47.696;8.068;2023-05-19T15:49:41;1.57;;;1.37;;
1751;SDS011;873;47.696;8.068;2023-05-19T15:52:07;1.83;;;1.40;;
1751;SDS011;873;47.696;8.068;2023-05-19T15:54:32;1.30;;;1.20;;
1751;SDS011;873;47.696;8.068;2023-05-19T15:56:58;1.33;;;1.23;;
1751;SDS011;873;47.696;8.068;2023-05-19T15:59:23;1.47;;;1.37;;
1751;SDS011;873;47.696;8.068;2023-05-19T16:01:49;2.00;;;1.80;;
1751;SDS011;873;47.696;8.068;2023-05-19T16:04:15;2.10;;;1.40;;
1751;SDS011;873;47.696;8.068;2023-05-19T16:06:41;1.50;;;1.40;;
1751;SDS011;873;47.696;8.068;2023-05-19T16:09:08;1.80;;;1.43;;
1751;SDS011;873;47.696;8.068;2023-05-19T16:11:35;1.73;;;1.40;;
1751;SDS011;873;47.696;8.068;2023-05-19T16:14:00;3.17;;;1.60;;
1751;SDS011;873;47.696;8.068;2023-05-19T16:16:26;3.20;;;1.30;;
1751;SDS011;873;47.696;8.068;2023-05-19T16:18:51;1.40;;;1.30;;
1751;SDS011;873;47.696;8.068;2023-05-19T16:21:17;1.20;;;1.10;;
1751;SDS011;873;47.696;8.068;2023-05-19T16:23:42;1.83;;;1.70;;
1751;SDS011;873;47.696;8.068;2023-05-19T16:26:08;2.63;;;1.60;;
1751;SDS011;873;47.696;8.068;2023-05-19T16:28:33;2.63;;;1.97;;
1751;SDS011;873;47.696;8.068;2023-05-19T16:30:59;1.47;;;1.37;;
1751;SDS011;873;47.696;8.068;2023-05-19T16:33:25;1.43;;;1.30;;
1751;SDS011;873;47.696;8.068;2023-05-19T16:35:51;1.60;;;1.50;;
1751;SDS011;873;47.696;8.068;2023-05-19T16:38:16;1.73;;;1.57;;
1751;SDS011;873;47.696;8.068;2023-05-19T16:40:42;2.10;;;1.90;;